createdAt,value
2024-03-19T00:00:02.780Z,1019.5
2024-03-19T00:01:01.930Z,1019.5
2024-03-19T00:02:03.879Z,1019.5
2024-03-19T00:03:02.549Z,1019.5
2024-03-19T00:04:02.325Z,1019.5
2024-03-19T00:05:02.698Z,1019.5
2024-03-19T00:06:02.390Z,1019.4
2024-03-19T00:07:02.603Z,1019.5
2024-03-19T00:08:02.285Z,1019.4
2024-03-19T00:09:02.418Z,1019.4
2024-03-19T00:10:02.435Z,1019.4
2024-03-19T00:11:02.132Z,1019.4
2024-03-19T00:12:02.271Z,1019.5
2024-03-19T00:13:01.868Z,1019.4
2024-03-19T00:14:02.712Z,1019.4
2024-03-19T00:15:02.544Z,1019.4
2024-03-19T00:16:02.282Z,1019.5
2024-03-19T00:17:02.606Z,1019.5
2024-03-19T00:18:02.274Z,1019.4
2024-03-19T00:19:02.831Z,1019.4
2024-03-19T00:20:02.572Z,1019.5
2024-03-19T00:21:02.736Z,1019.5
2024-03-19T00:22:02.370Z,1019.4
2024-03-19T00:23:02.554Z,1019.5
2024-03-19T00:24:02.180Z,1019.4
2024-03-19T00:25:02.507Z,1019.4
2024-03-19T00:26:02.197Z,1019.4
2024-03-19T00:27:02.505Z,1019.5
2024-03-19T00:28:02.185Z,1019.5
2024-03-19T00:29:02.332Z,1019.4
2024-03-19T00:30:02.334Z,1019.4
2024-03-19T00:31:02.182Z,1019.5
2024-03-19T00:32:02.277Z,1019.4
2024-03-19T00:33:03.075Z,1019.5
2024-03-19T00:34:01.714Z,1019.5
2024-03-19T00:35:02.317Z,1019.5
2024-03-19T00:36:01.983Z,1019.5
2024-03-19T00:37:02.588Z,1019.4
2024-03-19T00:38:02.360Z,1019.4
2024-03-19T00:39:02.340Z,1019.4
2024-03-19T00:40:02.412Z,1019.4
2024-03-19T00:41:02.024Z,1019.5
2024-03-19T00:42:01.819Z,1019.4
2024-03-19T00:43:01.750Z,1019.4
2024-03-19T00:44:02.520Z,1019.4
2024-03-19T00:45:02.497Z,1019.5
2024-03-19T00:46:02.293Z,1019.4
2024-03-19T00:47:02.850Z,1019.4
2024-03-19T00:48:02.545Z,1019.4
2024-03-19T00:49:02.789Z,1019.4
2024-03-19T00:50:02.456Z,1019.4
2024-03-19T00:51:02.598Z,1019.5
2024-03-19T00:52:02.230Z,1019.4
2024-03-19T00:53:03.007Z,1019.4
2024-03-19T00:54:01.661Z,1019.4
2024-03-19T00:55:02.172Z,1019.4
2024-03-19T00:56:01.850Z,1019.4
2024-03-19T00:57:02.045Z,1019.4
2024-03-19T00:58:01.739Z,1019.4
2024-03-19T00:59:02.191Z,1019.4
2024-03-19T01:00:02.485Z,1019.4
2024-03-19T01:01:02.473Z,1019.4
2024-03-19T01:02:02.501Z,1019.4
2024-03-19T01:03:02.981Z,1019.4
2024-03-19T01:04:01.659Z,1019.4
2024-03-19T01:05:01.962Z,1019.4
2024-03-19T01:06:01.661Z,1019.4
2024-03-19T01:07:02.392Z,1019.4
2024-03-19T01:08:02.779Z,1019.4
2024-03-19T01:09:02.519Z,1019.4
2024-03-19T01:10:02.447Z,1019.4
2024-03-19T01:11:02.276Z,1019.4
2024-03-19T01:12:01.914Z,1019.4
2024-03-19T01:13:02.795Z,1019.4
2024-03-19T01:14:02.491Z,1019.5
2024-03-19T01:15:02.652Z,1019.4
2024-03-19T01:16:02.347Z,1019.4
2024-03-19T01:18:02.283Z,1019.4
2024-03-19T01:19:02.543Z,1019.4
2024-03-19T01:20:02.254Z,1019.4
2024-03-19T01:21:02.346Z,1019.5
2024-03-19T01:22:02.000Z,1019.4
2024-03-19T01:23:02.248Z,1019.5
2024-03-19T01:24:01.917Z,1019.5
2024-03-19T01:25:03.062Z,1019.5
2024-03-19T01:26:02.066Z,1019.4
2024-03-19T01:27:01.962Z,1019.5
2024-03-19T01:28:01.643Z,1019.4
2024-03-19T01:29:02.171Z,1019.5
2024-03-19T01:30:01.992Z,1019.4
2024-03-19T01:31:02.362Z,1019.5
2024-03-19T01:33:02.023Z,1019.4
2024-03-19T01:34:01.684Z,1019.5
2024-03-19T01:35:02.415Z,1019.4
2024-03-19T01:36:02.092Z,1019.5
2024-03-19T01:37:02.321Z,1019.4
2024-03-19T01:38:01.978Z,1019.4
2024-03-19T01:39:02.520Z,1019.4
2024-03-19T01:40:02.648Z,1019.5
2024-03-19T01:41:02.384Z,1019.5
2024-03-19T01:42:02.213Z,1019.5
2024-03-19T01:43:02.272Z,1019.5
2024-03-19T01:44:01.943Z,1019.5
2024-03-19T01:45:02.186Z,1019.5
2024-03-19T01:46:01.817Z,1019.5
2024-03-19T01:47:01.903Z,1019.5
2024-03-19T01:48:03.413Z,1019.5
2024-03-19T01:49:02.025Z,1019.5
2024-03-19T01:50:01.899Z,1019.5
2024-03-19T01:51:01.698Z,1019.5
2024-03-19T01:52:02.601Z,1019.5
2024-03-19T01:53:02.451Z,1019.4
2024-03-19T01:54:02.220Z,1019.4
2024-03-19T01:55:02.332Z,1019.5
2024-03-19T01:56:01.997Z,1019.5
2024-03-19T01:57:02.139Z,1019.4
2024-03-19T01:58:01.760Z,1019.5
2024-03-19T01:59:02.349Z,1019.5
2024-03-19T02:00:03.993Z,1019.5
2024-03-19T02:01:01.676Z,1019.5
2024-03-19T02:02:02.158Z,1019.5
2024-03-19T02:03:02.641Z,1019.5
2024-03-19T02:04:02.246Z,1019.5
2024-03-19T02:05:02.765Z,1019.5
2024-03-19T02:06:02.547Z,1019.5
2024-03-19T02:07:02.504Z,1019.5
2024-03-19T02:08:02.648Z,1019.5
2024-03-19T02:09:02.382Z,1019.5
2024-03-19T02:10:02.458Z,1019.5
2024-03-19T02:11:02.097Z,1019.5
2024-03-19T02:12:01.915Z,1019.4
2024-03-19T02:13:01.771Z,1019.5
2024-03-19T02:14:02.888Z,1019.5
2024-03-19T02:15:02.518Z,1019.5
2024-03-19T02:16:02.675Z,1019.5
2024-03-19T02:17:02.373Z,1019.5
2024-03-19T02:18:02.498Z,1019.5
2024-03-19T02:19:02.291Z,1019.5
2024-03-19T02:20:02.042Z,1019.5
2024-03-19T02:21:02.098Z,1019.5
2024-03-19T02:22:01.821Z,1019.5
2024-03-19T02:23:02.023Z,1019.5
2024-03-19T02:24:01.667Z,1019.5
2024-03-19T02:25:02.233Z,1019.6
2024-03-19T02:26:01.895Z,1019.5
2024-03-19T02:27:02.433Z,1019.6
2024-03-19T02:28:02.075Z,1019.5
2024-03-19T02:29:02.396Z,1019.6
2024-03-19T02:30:02.121Z,1019.5
2024-03-19T02:31:02.659Z,1019.6
2024-03-19T02:32:02.344Z,1019.6
2024-03-19T02:33:02.316Z,1019.7
2024-03-19T02:34:02.128Z,1019.6
2024-03-19T02:35:02.771Z,1019.5
2024-03-19T02:36:02.430Z,1019.6
2024-03-19T02:37:02.628Z,1019.5
2024-03-19T02:38:02.528Z,1019.6
2024-03-19T02:39:02.457Z,1019.6
2024-03-19T02:40:02.141Z,1019.6
2024-03-19T02:41:02.348Z,1019.6
2024-03-19T02:42:02.018Z,1019.6
2024-03-19T02:43:02.129Z,1019.6
2024-03-19T02:44:02.933Z,1019.5
2024-03-19T02:45:02.659Z,1019.6
2024-03-19T02:46:02.806Z,1019.6
2024-03-19T02:48:02.477Z,1019.6
2024-03-19T02:49:02.467Z,1019.6
2024-03-19T02:50:02.333Z,1019.6
2024-03-19T02:51:02.261Z,1019.6
2024-03-19T02:52:01.898Z,1019.6
2024-03-19T02:53:01.972Z,1019.6
2024-03-19T02:54:01.601Z,1019.5
2024-03-19T02:55:02.244Z,1019.6
2024-03-19T02:56:01.916Z,1019.7
2024-03-19T02:57:02.213Z,1019.6
2024-03-19T02:58:01.887Z,1019.6
2024-03-19T02:59:02.043Z,1019.7
2024-03-19T03:00:01.974Z,1019.6
2024-03-19T03:01:02.252Z,1019.7
2024-03-19T03:02:02.850Z,1019.7
2024-03-19T03:03:02.483Z,1019.6
2024-03-19T03:04:02.594Z,1019.7
2024-03-19T03:05:02.387Z,1019.7
2024-03-19T03:06:02.269Z,1019.6
2024-03-19T03:07:02.074Z,1019.7
2024-03-19T03:08:01.798Z,1019.7
2024-03-19T03:09:01.757Z,1019.7
2024-03-19T03:10:03.517Z,1019.7
2024-03-19T03:11:02.144Z,1019.7
2024-03-19T03:12:02.330Z,1019.7
2024-03-19T03:13:01.995Z,1019.6
2024-03-19T03:14:01.782Z,1019.7
2024-03-19T03:15:01.698Z,1019.8
2024-03-19T03:16:02.860Z,1019.8
2024-03-19T03:18:03.031Z,1019.8
2024-03-19T03:19:01.665Z,1019.7
2024-03-19T03:20:02.791Z,1019.8
2024-03-19T03:21:02.485Z,1019.8
2024-03-19T03:22:02.605Z,1019.7
2024-03-19T03:23:02.232Z,1019.7
2024-03-19T03:24:02.030Z,1019.7
2024-03-19T03:25:01.973Z,1019.8
2024-03-19T03:26:01.844Z,1019.8
2024-03-19T03:27:01.740Z,1019.8
2024-03-19T03:28:02.449Z,1019.8
2024-03-19T03:29:02.550Z,1019.8
2024-03-19T03:30:02.244Z,1019.8
2024-03-19T03:31:02.354Z,1019.8
2024-03-19T03:32:02.885Z,1019.8
2024-03-19T03:33:02.537Z,1019.9
2024-03-19T03:34:02.389Z,1019.8
2024-03-19T03:35:03.045Z,1019.9
2024-03-19T03:36:01.703Z,1019.9
2024-03-19T03:37:19.068Z,1019.9
2024-03-19T03:38:01.772Z,1019.8
2024-03-19T03:39:01.962Z,1019.9
2024-03-19T03:40:01.650Z,1019.9
2024-03-19T03:41:01.826Z,1019.9
2024-03-19T03:42:02.680Z,1019.9
2024-03-19T03:43:09.380Z,1019.9
2024-03-19T03:44:02.065Z,1019.9
2024-03-19T03:45:02.213Z,1019.9
2024-03-19T03:46:01.910Z,1020
2024-03-19T03:47:02.327Z,1019.9
2024-03-19T03:48:02.032Z,1019.9
2024-03-19T03:49:02.059Z,1019.9
2024-03-19T03:50:01.822Z,1019.9
2024-03-19T03:51:01.820Z,1019.9
2024-03-19T03:52:02.652Z,1020
2024-03-19T03:53:02.570Z,1020
2024-03-19T03:54:02.350Z,1020
2024-03-19T03:55:06.275Z,1020
2024-03-19T03:56:01.917Z,1020
2024-03-19T03:57:02.258Z,1020
2024-03-19T03:58:01.920Z,1020
2024-03-19T03:59:02.068Z,1020
2024-03-19T04:00:02.377Z,1020
2024-03-19T04:01:02.273Z,1020
2024-03-19T04:03:02.221Z,1020.1
2024-03-19T04:04:01.964Z,1020.1
2024-03-19T04:05:02.319Z,1020.1
2024-03-19T04:06:01.953Z,1020.1
2024-03-19T04:07:02.197Z,1020.1
2024-03-19T04:08:01.861Z,1020.1
2024-03-19T04:09:02.063Z,1020.1
2024-03-19T04:10:01.806Z,1020.1
2024-03-19T04:11:02.242Z,1020.1
2024-03-19T04:12:01.920Z,1020.2
2024-03-19T04:13:02.245Z,1020.1
2024-03-19T04:14:01.861Z,1020.1
2024-03-19T04:15:02.413Z,1020.1
2024-03-19T04:16:02.036Z,1020.2
2024-03-19T04:17:02.345Z,1020.2
2024-03-19T04:18:02.467Z,1020.2
2024-03-19T04:19:02.145Z,1020.1
2024-03-19T04:20:02.856Z,1020.2
2024-03-19T04:21:02.551Z,1020.2
2024-03-19T04:22:02.362Z,1020.1
2024-03-19T04:23:02.356Z,1020.2
2024-03-19T04:24:01.969Z,1020.2
2024-03-19T04:25:02.180Z,1020.3
2024-03-19T04:26:01.936Z,1020.3
2024-03-19T04:27:02.118Z,1020.3
2024-03-19T04:28:01.764Z,1020.3
2024-03-19T04:29:01.987Z,1020.3
2024-03-19T04:30:01.660Z,1020.2
2024-03-19T04:31:02.634Z,1020.3
2024-03-19T04:32:02.722Z,1020.3
2024-03-19T04:33:01.703Z,1020.4
2024-03-19T04:34:04.590Z,1020.3
2024-03-19T04:35:02.445Z,1020.3
2024-03-19T04:36:02.066Z,1020.3
2024-03-19T04:37:02.384Z,1020.4
2024-03-19T04:38:02.202Z,1020.3
2024-03-19T04:39:02.176Z,1020.4
2024-03-19T04:40:01.937Z,1020.4
2024-03-19T04:41:01.839Z,1020.4
2024-03-19T04:42:02.652Z,1020.4
2024-03-19T04:43:02.552Z,1020.4
2024-03-19T04:44:02.453Z,1020.4
2024-03-19T04:45:03.313Z,1020.4
2024-03-19T04:46:01.960Z,1020.5
2024-03-19T04:47:02.436Z,1020.4
2024-03-19T04:48:02.561Z,1020.4
2024-03-19T04:49:02.347Z,1020.5
2024-03-19T04:50:02.047Z,1020.5
2024-03-19T04:51:02.323Z,1020.5
2024-03-19T04:52:01.947Z,1020.4
2024-03-19T04:53:02.261Z,1020.5
2024-03-19T04:54:01.876Z,1020.6
2024-03-19T04:55:02.121Z,1020.5
2024-03-19T04:56:01.763Z,1020.5
2024-03-19T04:57:02.317Z,1020.5
2024-03-19T04:58:02.055Z,1020.6
2024-03-19T04:59:02.262Z,1020.6
2024-03-19T05:00:03.288Z,1020.6
2024-03-19T05:01:01.925Z,1020.6
2024-03-19T05:02:06.593Z,1020.6
2024-03-19T05:03:02.240Z,1020.7
2024-03-19T05:04:02.076Z,1020.7
2024-03-19T05:05:02.521Z,1020.7
2024-03-19T05:06:02.203Z,1020.7
2024-03-19T05:07:02.731Z,1020.7
2024-03-19T05:08:02.403Z,1020.7
2024-03-19T05:09:02.466Z,1020.6
2024-03-19T05:10:02.205Z,1020.7
2024-03-19T05:11:02.644Z,1020.7
2024-03-19T05:12:02.267Z,1020.7
2024-03-19T05:13:02.479Z,1020.7
2024-03-19T05:14:02.119Z,1020.7
2024-03-19T05:15:02.373Z,1020.7
2024-03-19T05:16:02.366Z,1020.8
2024-03-19T05:17:02.209Z,1020.8
2024-03-19T05:18:01.965Z,1020.8
2024-03-19T05:19:01.961Z,1020.8
2024-03-19T05:20:01.772Z,1020.8
2024-03-19T05:21:01.594Z,1020.8
2024-03-19T05:22:02.396Z,1020.8
2024-03-19T05:23:02.467Z,1020.8
2024-03-19T05:24:02.180Z,1020.8
2024-03-19T05:25:02.644Z,1020.8
2024-03-19T05:26:02.297Z,1020.8
2024-03-19T05:27:03.063Z,1020.8
2024-03-19T05:28:01.723Z,1020.8
2024-03-19T05:29:01.897Z,1020.8
2024-03-19T05:30:02.768Z,1020.8
2024-03-19T05:31:02.544Z,1020.8
2024-03-19T05:33:02.319Z,1020.8
2024-03-19T05:34:01.948Z,1020.8
2024-03-19T05:35:02.195Z,1020.9
2024-03-19T05:36:01.828Z,1020.9
2024-03-19T05:37:02.141Z,1020.8
2024-03-19T05:38:01.801Z,1020.9
2024-03-19T05:39:02.090Z,1020.8
2024-03-19T05:40:01.704Z,1020.9
2024-03-19T05:41:02.708Z,1020.9
2024-03-19T05:42:02.321Z,1020.9
2024-03-19T05:43:02.449Z,1020.9
2024-03-19T05:44:02.659Z,1020.9
2024-03-19T05:45:02.470Z,1020.9
2024-03-19T05:46:02.286Z,1021
2024-03-19T05:47:02.076Z,1020.9
2024-03-19T05:48:01.799Z,1020.9
2024-03-19T05:49:01.769Z,1021
2024-03-19T05:50:02.532Z,1020.9
2024-03-19T05:51:02.432Z,1021
2024-03-19T05:52:02.519Z,1021
2024-03-19T05:53:02.207Z,1021
2024-03-19T05:54:02.087Z,1021
2024-03-19T05:55:01.920Z,1021.1
2024-03-19T05:56:03.060Z,1021
2024-03-19T05:57:01.696Z,1021
2024-03-19T05:58:02.447Z,1021
2024-03-19T05:59:02.505Z,1021
2024-03-19T06:00:07.066Z,1021.1
2024-03-19T06:01:01.718Z,1021.1
2024-03-19T06:02:02.503Z,1021.1
2024-03-19T06:03:02.283Z,1021.1
2024-03-19T06:04:01.960Z,1021.1
2024-03-19T06:05:02.217Z,1021.1
2024-03-19T06:06:01.835Z,1021.1
2024-03-19T06:07:02.041Z,1021.1
2024-03-19T06:08:01.697Z,1021
2024-03-19T06:09:01.991Z,1021.1
2024-03-19T06:10:01.851Z,1021.1
2024-03-19T06:11:01.976Z,1021
2024-03-19T06:12:07.630Z,1021.1
2024-03-19T06:13:02.249Z,1021.1
2024-03-19T06:14:02.048Z,1021.1
2024-03-19T06:15:01.965Z,1021.1
2024-03-19T06:16:01.786Z,1021.1
2024-03-19T06:17:01.654Z,1021.1
2024-03-19T06:18:02.738Z,1021.1
2024-03-19T06:19:26.859Z,1021.1
2024-03-19T06:20:01.681Z,1021.1
2024-03-19T06:21:02.401Z,1021.1
2024-03-19T06:22:02.076Z,1021.1
2024-03-19T06:23:02.375Z,1021.2
2024-03-19T06:24:05.943Z,1021.2
2024-03-19T06:25:02.563Z,1021.2
2024-03-19T06:26:02.361Z,1021.2
2024-03-19T06:27:02.419Z,1021.2
2024-03-19T06:28:02.017Z,1021.3
2024-03-19T06:29:02.277Z,1021.2
2024-03-19T06:30:01.917Z,1021.2
2024-03-19T06:31:02.104Z,1021.2
2024-03-19T06:33:02.070Z,1021.2
2024-03-19T06:34:01.728Z,1021.2
2024-03-19T06:35:01.920Z,1021.3
2024-03-19T06:36:03.177Z,1021.1
2024-03-19T06:37:01.777Z,1021.2
2024-03-19T06:38:02.645Z,1021.3
2024-03-19T06:39:02.384Z,1021.3
2024-03-19T06:40:02.063Z,1021.3
2024-03-19T06:41:02.362Z,1021.3
2024-03-19T06:42:02.006Z,1021.3
2024-03-19T06:43:02.106Z,1021.3
2024-03-19T06:44:01.724Z,1021.3
2024-03-19T06:45:01.836Z,1021.2
2024-03-19T06:46:02.602Z,1021.3
2024-03-19T06:47:02.483Z,1021.3
2024-03-19T06:48:02.224Z,1021.3
2024-03-19T06:49:02.050Z,1021.3
2024-03-19T06:50:01.787Z,1021.3
2024-03-19T06:51:01.677Z,1021.4
2024-03-19T06:52:02.812Z,1021.3
2024-03-19T06:53:02.436Z,1021.4
2024-03-19T06:54:02.276Z,1021.4
2024-03-19T06:55:06.701Z,1021.3
2024-03-19T06:56:02.323Z,1021.4
2024-03-19T06:57:02.515Z,1021.4
2024-03-19T06:58:02.199Z,1021.3
2024-03-19T06:59:02.413Z,1021.4
2024-03-19T07:00:02.071Z,1021.4
2024-03-19T07:01:02.386Z,1021.3
2024-03-19T07:03:02.357Z,1021.4
2024-03-19T07:04:10.509Z,1021.3
2024-03-19T07:05:01.729Z,1021.4
2024-03-19T07:06:02.427Z,1021.4
2024-03-19T07:07:02.475Z,1021.4
2024-03-19T07:08:02.276Z,1021.4
2024-03-19T07:09:02.230Z,1021.4
2024-03-19T07:10:01.933Z,1021.4
2024-03-19T07:11:02.384Z,1021.5
2024-03-19T07:12:01.996Z,1021.4
2024-03-19T07:13:02.585Z,1021.5
2024-03-19T07:14:02.233Z,1021.4
2024-03-19T07:15:02.428Z,1021.4
2024-03-19T07:16:02.075Z,1021.5
2024-03-19T07:17:02.262Z,1021.5
2024-03-19T07:18:02.091Z,1021.5
2024-03-19T07:19:02.015Z,1021.5
2024-03-19T07:20:01.807Z,1021.5
2024-03-19T07:21:01.632Z,1021.5
2024-03-19T07:22:02.266Z,1021.5
2024-03-19T07:23:02.325Z,1021.6
2024-03-19T07:24:01.949Z,1021.6
2024-03-19T07:25:02.095Z,1021.6
2024-03-19T07:26:01.805Z,1021.6
2024-03-19T07:27:04.384Z,1021.6
2024-03-19T07:28:02.050Z,1021.5
2024-03-19T07:29:02.241Z,1021.6
2024-03-19T07:30:01.885Z,1021.6
2024-03-19T07:31:01.877Z,1021.6
2024-03-19T07:32:01.627Z,1021.6
2024-03-19T07:33:01.812Z,1021.6
2024-03-19T07:34:02.536Z,1021.6
2024-03-19T07:35:02.479Z,1021.7
2024-03-19T07:36:02.227Z,1021.7
2024-03-19T07:37:02.290Z,1021.7
2024-03-19T07:38:01.955Z,1021.7
2024-03-19T07:39:02.193Z,1021.8
2024-03-19T07:40:01.950Z,1021.8
2024-03-19T07:41:01.972Z,1021.8
2024-03-19T07:42:01.610Z,1021.8
2024-03-19T07:43:01.742Z,1021.7
2024-03-19T07:44:02.579Z,1021.8
2024-03-19T07:45:02.479Z,1021.8
2024-03-19T07:46:02.248Z,1021.8
2024-03-19T07:47:02.349Z,1021.8
2024-03-19T07:48:02.122Z,1021.8
2024-03-19T07:49:05.491Z,1021.9
2024-03-19T07:50:02.582Z,1021.8
2024-03-19T07:51:02.296Z,1021.8
2024-03-19T07:52:02.427Z,1021.9
2024-03-19T07:53:02.878Z,1021.9
2024-03-19T07:54:02.725Z,1021.9
2024-03-19T07:55:01.982Z,1021.8
2024-03-19T07:56:01.744Z,1021.9
2024-03-19T07:57:02.352Z,1022
2024-03-19T07:58:02.025Z,1021.9
2024-03-19T07:59:02.178Z,1021.9
2024-03-19T08:00:02.746Z,1021.9
2024-03-19T08:01:02.585Z,1021.9
2024-03-19T08:03:02.492Z,1021.9
2024-03-19T08:04:07.529Z,1021.9
2024-03-19T08:05:02.196Z,1021.9
2024-03-19T08:06:02.008Z,1021.9
2024-03-19T08:07:01.786Z,1021.9
2024-03-19T08:08:02.923Z,1021.9
2024-03-19T08:09:02.545Z,1021.9
2024-03-19T08:10:02.375Z,1021.9
2024-03-19T08:11:02.875Z,1021.9
2024-03-19T08:12:02.471Z,1021.9
2024-03-19T08:13:03.006Z,1021.9
2024-03-19T08:14:01.620Z,1021.9
2024-03-19T08:15:01.885Z,1021.9
2024-03-19T08:16:02.821Z,1021.9
2024-03-19T08:18:02.069Z,1021.9
2024-03-19T08:19:01.925Z,1022
2024-03-19T08:20:03.022Z,1021.9
2024-03-19T08:21:01.725Z,1021.9
2024-03-19T08:22:02.534Z,1022
2024-03-19T08:23:02.361Z,1022
2024-03-19T08:24:02.203Z,1022
2024-03-19T08:25:02.069Z,1021.9
2024-03-19T08:26:01.829Z,1021.9
2024-03-19T08:27:01.670Z,1022
2024-03-19T08:28:02.453Z,1022
2024-03-19T08:29:02.292Z,1022
2024-03-19T08:30:06.700Z,1022
2024-03-19T08:31:01.640Z,1022
2024-03-19T08:32:02.127Z,1022
2024-03-19T08:33:02.355Z,1022
2024-03-19T08:34:02.013Z,1021.9
2024-03-19T08:35:02.242Z,1022
2024-03-19T08:36:03.323Z,1022
2024-03-19T08:37:02.192Z,1021.9
2024-03-19T08:38:02.286Z,1022.1
2024-03-19T08:39:02.463Z,1022
2024-03-19T08:40:02.096Z,1022
2024-03-19T08:41:02.247Z,1022
2024-03-19T08:42:08.491Z,1022
2024-03-19T08:43:02.360Z,1022
2024-03-19T08:44:02.279Z,1021.9
2024-03-19T08:45:02.036Z,1021.9
2024-03-19T08:46:02.144Z,1021.9
2024-03-19T08:48:02.533Z,1021.9
2024-03-19T08:49:02.350Z,1022
2024-03-19T08:50:02.665Z,1022
2024-03-19T08:51:02.339Z,1022
2024-03-19T08:52:01.974Z,1022
2024-03-19T08:53:02.201Z,1022
2024-03-19T08:54:01.791Z,1022
2024-03-19T08:55:02.017Z,1022
2024-03-19T08:56:01.632Z,1022
2024-03-19T08:57:01.795Z,1022
2024-03-19T08:58:02.644Z,1022
2024-03-19T08:59:02.444Z,1022
2024-03-19T09:00:03.599Z,1022.1
2024-03-19T09:01:02.619Z,1022.1
2024-03-19T09:03:02.496Z,1022
2024-03-19T09:04:02.322Z,1022.1
2024-03-19T09:05:02.180Z,1022.1
2024-03-19T09:06:01.863Z,1022.1
2024-03-19T09:07:01.903Z,1022.1
2024-03-19T09:08:02.716Z,1022.2
2024-03-19T09:09:02.565Z,1022.1
2024-03-19T09:10:02.839Z,1022.1
2024-03-19T09:11:02.499Z,1022.1
2024-03-19T09:12:02.313Z,1022.1
2024-03-19T09:13:02.377Z,1022.1
2024-03-19T09:14:01.991Z,1022.1
2024-03-19T09:15:02.568Z,1022.1
2024-03-19T09:16:02.856Z,1022.2
2024-03-19T09:18:02.800Z,1022.1
2024-03-19T09:19:02.558Z,1022.1
2024-03-19T09:20:02.401Z,1022.1
2024-03-19T09:21:02.432Z,1022.2
2024-03-19T09:22:02.043Z,1022.1
2024-03-19T09:23:02.615Z,1022.2
2024-03-19T09:24:02.286Z,1022.2
2024-03-19T09:25:08.153Z,1022.2
2024-03-19T09:26:01.777Z,1022.2
2024-03-19T09:27:02.021Z,1022.2
2024-03-19T09:28:01.684Z,1022.2
2024-03-19T09:29:01.941Z,1022.2
2024-03-19T09:30:03.328Z,1022.2
2024-03-19T09:31:02.038Z,1022.2
2024-03-19T09:33:02.153Z,1022.3
2024-03-19T09:34:01.782Z,1022.3
2024-03-19T09:35:01.935Z,1022.3
2024-03-19T09:36:03.042Z,1022.3
2024-03-19T09:37:01.673Z,1022.2
2024-03-19T09:38:02.469Z,1022.3
2024-03-19T09:39:02.375Z,1022.3
2024-03-19T09:40:02.548Z,1022.3
2024-03-19T09:41:02.304Z,1022.3
2024-03-19T09:42:02.059Z,1022.3
2024-03-19T09:43:02.031Z,1022.3
2024-03-19T09:44:01.617Z,1022.3
2024-03-19T09:45:02.316Z,1022.3
2024-03-19T09:46:01.946Z,1022.3
2024-03-19T09:47:03.312Z,1022.4
2024-03-19T09:48:02.048Z,1022.4
2024-03-19T09:49:01.992Z,1022.4
2024-03-19T09:50:02.252Z,1022.3
2024-03-19T09:51:01.924Z,1022.4
2024-03-19T09:52:02.792Z,1022.4
2024-03-19T09:53:01.613Z,1022.4
2024-03-19T09:54:02.426Z,1022.4
2024-03-19T09:55:02.856Z,1022.4
2024-03-19T09:56:02.513Z,1022.4
2024-03-19T09:57:02.789Z,1022.4
2024-03-19T09:58:02.966Z,1022.3
2024-03-19T09:59:01.796Z,1022.3
2024-03-19T10:00:02.673Z,1022.3
2024-03-19T10:01:02.485Z,1022.3
2024-03-19T10:03:02.689Z,1022.4
2024-03-19T10:04:02.445Z,1022.3
2024-03-19T10:05:02.681Z,1022.3
2024-03-19T10:06:02.470Z,1022.3
2024-03-19T10:07:02.779Z,1022.3
2024-03-19T10:08:02.436Z,1022.3
2024-03-19T10:09:02.747Z,1022.3
2024-03-19T10:10:02.452Z,1022.3
2024-03-19T10:11:02.546Z,1022.3
2024-03-19T10:12:02.532Z,1022.3
2024-03-19T10:13:02.180Z,1022.3
2024-03-19T10:14:02.187Z,1022.3
2024-03-19T10:15:02.016Z,1022.2
2024-03-19T10:16:01.881Z,1022.2
2024-03-19T10:17:02.644Z,1022.2
2024-03-19T10:18:02.261Z,1022.2
2024-03-19T10:19:02.553Z,1022.2
2024-03-19T10:20:02.436Z,1022.2
2024-03-19T10:21:02.445Z,1022.2
2024-03-19T10:22:02.096Z,1022.2
2024-03-19T10:23:02.260Z,1022.2
2024-03-19T10:24:01.966Z,1022.2
2024-03-19T10:25:02.247Z,1022.2
2024-03-19T10:26:02.290Z,1022.2
2024-03-19T10:27:02.122Z,1022.2
2024-03-19T10:28:01.904Z,1022.1
2024-03-19T10:29:01.812Z,1022.2
2024-03-19T10:30:02.609Z,1022.1
2024-03-19T10:31:03.035Z,1022.1
2024-03-19T10:32:25.478Z,1022.1
2024-03-19T10:33:02.398Z,1022.1
2024-03-19T10:34:02.290Z,1022.1
2024-03-19T10:35:02.568Z,1022.2
2024-03-19T10:36:02.368Z,1022.1
2024-03-19T10:37:02.531Z,1022.2
2024-03-19T10:38:04.187Z,1022.2
2024-03-19T10:39:02.024Z,1022.1
2024-03-19T10:40:01.991Z,1022.1
2024-03-19T10:41:01.964Z,1022.1
2024-03-19T10:42:02.742Z,1022.1
2024-03-19T10:43:01.741Z,1022.2
2024-03-19T10:44:02.455Z,1022.2
2024-03-19T10:45:02.648Z,1022.2
2024-03-19T10:46:02.399Z,1022.1
2024-03-19T10:48:02.676Z,1022.1
2024-03-19T10:49:02.510Z,1022.1
2024-03-19T10:50:02.431Z,1022
2024-03-19T10:51:02.569Z,1022.1
2024-03-19T10:52:10.581Z,1022.1
2024-03-19T10:53:02.256Z,1022
2024-03-19T10:54:02.350Z,1022.1
2024-03-19T10:55:02.090Z,1022.1
2024-03-19T10:56:01.898Z,1022
2024-03-19T10:57:01.808Z,1022.2
2024-03-19T10:58:02.703Z,1022.1
2024-03-19T10:59:02.688Z,1022.1
2024-03-19T11:00:04.130Z,1022.1
2024-03-19T11:01:01.752Z,1022.1
2024-03-19T11:02:02.250Z,1022.1
2024-03-19T11:03:02.376Z,1022.2
2024-03-19T11:04:01.998Z,1022.2
2024-03-19T11:05:02.513Z,1022.1
2024-03-19T11:06:02.371Z,1022.1
2024-03-19T11:07:02.178Z,1022.1
2024-03-19T11:08:02.012Z,1022.1
2024-03-19T11:09:01.902Z,1022.1
2024-03-19T11:10:02.693Z,1022.1
2024-03-19T11:11:02.590Z,1022.1
2024-03-19T11:12:02.897Z,1022.1
2024-03-19T11:13:02.549Z,1022.2
2024-03-19T11:14:02.269Z,1022.1
2024-03-19T11:15:02.848Z,1022.2
2024-03-19T11:16:02.496Z,1022.2
2024-03-19T11:18:02.988Z,1022.1
2024-03-19T11:19:01.607Z,1022.2
2024-03-19T11:20:02.362Z,1022.2
2024-03-19T11:21:02.458Z,1022.2
2024-03-19T11:22:02.146Z,1022.2
2024-03-19T11:23:02.211Z,1022.1
2024-03-19T11:24:01.911Z,1022.2
2024-03-19T11:25:02.044Z,1022.1
2024-03-19T11:26:01.662Z,1022.1
2024-03-19T11:27:01.969Z,1022.1
2024-03-19T11:28:01.653Z,1022.1
2024-03-19T11:29:01.745Z,1022.1
2024-03-19T11:30:02.877Z,1022.1
2024-03-19T11:31:02.537Z,1022.1
2024-03-19T11:32:02.456Z,1022.1
2024-03-19T11:33:03.167Z,1022.1
2024-03-19T11:34:01.809Z,1022.1
2024-03-19T11:35:01.974Z,1022.1
2024-03-19T11:36:01.620Z,1022.1
2024-03-19T11:37:01.748Z,1022.1
2024-03-19T11:38:02.843Z,1022
2024-03-19T11:39:02.525Z,1022.2
2024-03-19T11:40:02.279Z,1022.1
2024-03-19T11:41:31.414Z,1022.1
2024-03-19T11:42:02.050Z,1022.1
2024-03-19T11:43:02.469Z,1022.1
2024-03-19T11:44:02.082Z,1022
2024-03-19T11:45:02.307Z,1022
2024-03-19T11:46:01.912Z,1022.1
2024-03-19T11:47:02.424Z,1021.9
2024-03-19T11:48:02.832Z,1021.9
2024-03-19T11:49:02.489Z,1022
2024-03-19T11:50:02.704Z,1022
2024-03-19T11:51:03.774Z,1022.1
2024-03-19T11:52:02.412Z,1022
2024-03-19T11:53:02.562Z,1022
2024-03-19T11:54:02.303Z,1022
2024-03-19T11:55:02.279Z,1021.9
2024-03-19T11:56:01.995Z,1021.9
2024-03-19T11:57:02.265Z,1021.9
2024-03-19T11:58:01.921Z,1022
2024-03-19T11:59:02.033Z,1021.9
2024-03-19T12:00:01.960Z,1022
2024-03-19T12:01:02.993Z,1022
2024-03-19T12:02:03.772Z,1022
2024-03-19T12:03:02.477Z,1022
2024-03-19T12:04:02.597Z,1022
2024-03-19T12:05:02.179Z,1022
2024-03-19T12:06:02.335Z,1021.9
2024-03-19T12:07:02.790Z,1021.9
2024-03-19T12:08:02.440Z,1021.9
2024-03-19T12:09:02.826Z,1022
2024-03-19T12:10:02.580Z,1021.9
2024-03-19T12:11:03.033Z,1021.9
2024-03-19T12:12:01.766Z,1021.9
2024-03-19T12:13:01.847Z,1021.9
2024-03-19T12:14:02.974Z,1021.9
2024-03-19T12:15:01.889Z,1021.9
2024-03-19T12:16:02.701Z,1021.9
2024-03-19T12:17:02.480Z,1021.9
2024-03-19T12:18:02.419Z,1021.9
2024-03-19T12:19:02.401Z,1021.9
2024-03-19T12:20:02.063Z,1021.9
2024-03-19T12:21:02.275Z,1021.9
2024-03-19T12:22:01.953Z,1021.9
2024-03-19T12:23:02.404Z,1021.8
2024-03-19T12:24:02.432Z,1021.8
2024-03-19T12:25:02.058Z,1021.9
2024-03-19T12:26:02.450Z,1021.8
2024-03-19T12:27:02.456Z,1021.9
2024-03-19T12:28:02.134Z,1021.9
2024-03-19T12:29:02.380Z,1021.8
2024-03-19T12:30:02.324Z,1021.8
2024-03-19T12:31:01.985Z,1021.9
2024-03-19T12:32:01.856Z,1021.8
2024-03-19T12:33:02.212Z,1021.8
2024-03-19T12:34:01.860Z,1021.8
2024-03-19T12:35:02.092Z,1021.8
2024-03-19T12:36:01.867Z,1021.8
2024-03-19T12:37:01.960Z,1021.8
2024-03-19T12:38:01.589Z,1021.8
2024-03-19T12:39:01.974Z,1021.8
2024-03-19T12:40:01.591Z,1021.8
2024-03-19T12:41:03.072Z,1021.9
2024-03-19T12:42:01.745Z,1021.8
2024-03-19T12:43:01.828Z,1021.8
2024-03-19T12:44:02.976Z,1021.8
2024-03-19T12:45:01.799Z,1021.9
2024-03-19T12:46:02.786Z,1021.8
2024-03-19T12:48:02.063Z,1021.8
2024-03-19T12:49:01.882Z,1021.8
2024-03-19T12:50:02.789Z,1021.8
2024-03-19T12:51:02.620Z,1021.8